createdAt,value
2022-08-24T00:02:08.103Z,24.10
2022-08-24T00:04:39.148Z,24.05
2022-08-24T00:07:07.334Z,24.04
2022-08-24T00:09:49.599Z,24.03
2022-08-24T00:12:18.126Z,24.00
2022-08-24T00:14:44.991Z,23.97
2022-08-24T00:17:11.869Z,23.93
2022-08-24T00:19:39.096Z,23.90
2022-08-24T00:22:06.354Z,23.92
2022-08-24T00:24:33.953Z,23.90
2022-08-24T00:27:00.600Z,23.86
2022-08-24T00:29:27.375Z,23.82
2022-08-24T00:31:54.425Z,23.81
2022-08-24T00:34:21.036Z,23.81
2022-08-24T00:36:47.650Z,23.78
2022-08-24T00:39:14.444Z,23.74
2022-08-24T00:41:43.855Z,23.71
2022-08-24T00:44:11.680Z,23.69
2022-08-24T00:47:02.239Z,23.67
2022-08-24T00:49:37.810Z,23.64
2022-08-24T00:52:41.541Z,23.59
2022-08-24T00:55:12.709Z,23.61
2022-08-24T00:57:44.207Z,23.58
2022-08-24T01:00:25.452Z,23.54
2022-08-24T01:02:58.600Z,23.54
2022-08-24T01:05:25.586Z,23.51
2022-08-24T01:07:52.181Z,23.48
2022-08-24T01:10:24.896Z,23.45
2022-08-24T01:13:00.477Z,23.42
2022-08-24T01:15:30.027Z,23.41
2022-08-24T01:18:16.314Z,23.38
2022-08-24T01:20:47.495Z,23.37
2022-08-24T01:23:37.017Z,23.36
2022-08-24T01:26:06.334Z,23.36
2022-08-24T01:28:34.568Z,23.32
2022-08-24T01:31:03.878Z,23.28
2022-08-24T01:33:32.896Z,23.26
2022-08-24T01:36:28.490Z,23.24
2022-08-24T01:39:00.701Z,23.21
2022-08-24T01:41:29.278Z,23.24
2022-08-24T01:43:59.142Z,23.23
2022-08-24T01:46:27.972Z,23.17
2022-08-24T01:48:57.971Z,23.15
2022-08-24T01:51:28.871Z,23.13
2022-08-24T01:53:55.888Z,23.13
2022-08-24T01:56:22.695Z,23.08
2022-08-24T01:58:49.556Z,23.05
2022-08-24T02:01:18.309Z,23.05
2022-08-24T02:03:46.268Z,23.03
2022-08-24T02:06:19.726Z,23.01
2022-08-24T02:08:46.455Z,23.01
2022-08-24T02:11:15.656Z,22.97
2022-08-24T02:13:42.611Z,22.95
2022-08-24T02:16:09.629Z,22.92
2022-08-24T02:18:37.454Z,22.89
2022-08-24T02:21:08.657Z,22.90
2022-08-24T02:23:37.441Z,22.88
2022-08-24T02:26:05.963Z,22.83
2022-08-24T02:28:33.021Z,22.84
2022-08-24T02:31:01.234Z,22.84
2022-08-24T02:33:30.271Z,22.81
2022-08-24T02:35:56.955Z,22.80
2022-08-24T02:38:24.120Z,22.73
2022-08-24T02:40:50.827Z,22.71
2022-08-24T02:43:17.611Z,22.73
2022-08-24T02:45:50.185Z,22.69
2022-08-24T02:48:19.131Z,22.67
2022-08-24T02:50:49.838Z,22.65
2022-08-24T02:53:18.683Z,22.65
2022-08-24T02:55:45.678Z,22.61
2022-08-24T02:58:16.462Z,22.58
2022-08-24T03:00:47.067Z,22.59
2022-08-24T03:03:16.162Z,22.59
2022-08-24T03:05:42.898Z,22.55
2022-08-24T03:08:09.621Z,22.55
2022-08-24T03:10:36.437Z,22.51
2022-08-24T03:13:04.686Z,22.51
2022-08-24T03:15:31.610Z,22.46
2022-08-24T03:17:58.373Z,22.44
2022-08-24T03:20:26.905Z,22.42
2022-08-24T03:22:53.534Z,22.36
2022-08-24T03:25:21.651Z,22.36
2022-08-24T03:27:48.396Z,22.31
2022-08-24T03:30:18.155Z,22.28
2022-08-24T03:32:48.498Z,22.26
2022-08-24T03:35:16.331Z,22.21
2022-08-24T03:37:43.647Z,22.20
2022-08-24T03:40:22.185Z,22.20
2022-08-24T03:42:51.103Z,22.16
2022-08-24T03:45:18.410Z,22.12
2022-08-24T03:47:45.442Z,22.10
2022-08-24T03:50:13.387Z,22.09
2022-08-24T03:52:41.817Z,22.07
2022-08-24T03:55:10.179Z,22.05
2022-08-24T03:57:36.922Z,22.03
2022-08-24T04:00:10.702Z,21.99
2022-08-24T04:02:50.335Z,22.00
2022-08-24T04:05:20.207Z,21.98
2022-08-24T04:07:47.260Z,21.96
2022-08-24T04:10:14.543Z,21.93
2022-08-24T04:12:41.954Z,21.91
2022-08-24T04:15:10.015Z,21.92
2022-08-24T04:17:38.368Z,21.88
2022-08-24T04:20:06.852Z,21.85
2022-08-24T04:22:36.730Z,21.83
2022-08-24T04:25:09.309Z,21.83
2022-08-24T04:27:39.918Z,21.78
2022-08-24T04:30:08.047Z,21.74
2022-08-24T04:32:49.230Z,21.74
2022-08-24T04:35:16.129Z,21.75
2022-08-24T04:37:42.729Z,21.74
2022-08-24T04:40:09.963Z,21.76
2022-08-24T04:42:43.528Z,21.70
2022-08-24T04:45:11.055Z,21.70
2022-08-24T04:47:37.679Z,21.69
2022-08-24T04:50:04.793Z,21.66
2022-08-24T04:52:32.034Z,21.64
2022-08-24T04:54:58.867Z,21.64
2022-08-24T04:57:26.643Z,21.63
2022-08-24T04:59:56.547Z,21.66
2022-08-24T05:02:24.470Z,21.63
2022-08-24T05:04:54.047Z,21.61
2022-08-24T05:07:21.980Z,21.60
2022-08-24T05:09:49.480Z,21.63
2022-08-24T05:12:20.805Z,21.60
2022-08-24T05:14:55.806Z,21.55
2022-08-24T05:17:22.984Z,21.56
2022-08-24T05:19:50.642Z,21.58
2022-08-24T05:22:17.560Z,21.58
2022-08-24T05:24:48.395Z,21.64
2022-08-24T05:27:15.848Z,21.75
2022-08-24T05:29:46.465Z,21.84
2022-08-24T05:32:17.188Z,21.99
2022-08-24T05:34:44.498Z,22.15
2022-08-24T05:37:11.329Z,22.28
2022-08-24T05:39:52.398Z,22.43
2022-08-24T05:42:19.821Z,22.55
2022-08-24T05:44:48.752Z,22.66
2022-08-24T05:47:19.095Z,22.77
2022-08-24T05:49:47.954Z,23.01
2022-08-24T05:52:15.389Z,23.00
2022-08-24T05:54:43.440Z,23.13
2022-08-24T05:57:16.019Z,23.28
2022-08-24T06:00:06.051Z,23.19
2022-08-24T06:02:43.344Z,23.48
2022-08-24T06:05:10.640Z,23.61
2022-08-24T06:07:37.341Z,23.75
2022-08-24T06:10:32.925Z,23.82
2022-08-24T06:12:50.787Z,23.71
2022-08-24T06:15:17.639Z,23.84
2022-08-24T06:17:44.514Z,23.67
2022-08-24T06:20:11.552Z,23.91
2022-08-24T06:22:39.300Z,23.92
2022-08-24T06:25:25.146Z,24.12
2022-08-24T06:27:52.736Z,24.08
2022-08-24T06:30:19.447Z,24.02
2022-08-24T06:33:02.942Z,24.12
2022-08-24T06:35:46.835Z,24.29
2022-08-24T06:38:14.053Z,24.36
2022-08-24T06:40:41.587Z,24.24
2022-08-24T06:43:09.123Z,24.19
2022-08-24T06:45:56.023Z,24.13
2022-08-24T06:48:30.547Z,24.38
2022-08-24T06:50:58.773Z,24.44
2022-08-24T06:53:27.187Z,24.29
2022-08-24T06:55:58.645Z,24.32
2022-08-24T06:58:28.645Z,24.47
2022-08-24T07:00:57.032Z,24.64
2022-08-24T07:03:25.209Z,24.80
2022-08-24T07:05:59.951Z,24.76
2022-08-24T07:08:42.418Z,24.60
2022-08-24T07:11:11.284Z,24.42
2022-08-24T07:13:38.758Z,24.51
2022-08-24T07:16:05.710Z,24.80
2022-08-24T07:18:34.982Z,24.93
2022-08-24T07:21:03.702Z,24.54
2022-08-24T07:23:55.187Z,24.78
2022-08-24T07:26:24.279Z,24.71
2022-08-24T07:28:56.036Z,24.66
2022-08-24T07:31:24.087Z,24.64
2022-08-24T07:33:59.203Z,24.92
2022-08-24T07:36:25.920Z,24.87
2022-08-24T07:38:56.134Z,24.81
2022-08-24T07:44:15.644Z,24.75
2022-08-24T07:46:42.815Z,25.08
2022-08-24T07:49:20.585Z,25.19
2022-08-24T07:51:55.094Z,25.24
2022-08-24T07:54:21.865Z,25.03
2022-08-24T07:56:50.403Z,25.05
2022-08-24T07:59:17.553Z,24.97
2022-08-24T08:01:44.273Z,25.06
2022-08-24T08:04:12.131Z,24.99
2022-08-24T08:06:38.691Z,25.33
2022-08-24T08:09:06.377Z,25.27
2022-08-24T08:11:33.607Z,25.28
2022-08-24T08:14:00.865Z,25.46
2022-08-24T08:16:27.757Z,25.47
2022-08-24T08:19:09.349Z,25.76
2022-08-24T08:22:10.070Z,26.01
2022-08-24T08:24:55.227Z,25.90
2022-08-24T08:27:22.099Z,26.14
2022-08-24T08:29:48.999Z,26.24
2022-08-24T08:32:17.324Z,26.05
2022-08-24T08:34:46.036Z,26.19
2022-08-24T08:37:15.545Z,26.28
2022-08-24T08:39:43.414Z,26.35
2022-08-24T08:42:37.032Z,26.43
2022-08-24T08:45:24.852Z,26.43
2022-08-24T08:48:28.164Z,26.68
2022-08-24T08:51:31.987Z,26.79
2022-08-24T08:54:26.967Z,26.91
2022-08-24T08:57:02.503Z,26.91
2022-08-24T08:59:43.934Z,26.67
2022-08-24T09:02:29.706Z,26.85
2022-08-24T09:05:18.389Z,26.86
2022-08-24T09:07:57.312Z,27.17
2022-08-24T09:10:40.550Z,26.98
2022-08-24T09:13:37.751Z,27.07
2022-08-24T09:16:14.532Z,27.20
2022-08-24T09:19:02.999Z,27.48
2022-08-24T09:22:08.423Z,27.55
2022-08-24T09:24:54.009Z,27.86
2022-08-24T09:28:04.531Z,27.61
2022-08-24T09:31:05.079Z,27.58
2022-08-24T09:33:36.888Z,27.64
2022-08-24T09:36:24.393Z,27.85
2022-08-24T09:39:01.104Z,27.86
2022-08-24T09:41:32.073Z,27.94
2022-08-24T09:44:27.693Z,28.08
2022-08-24T09:47:21.132Z,28.37
2022-08-24T09:49:56.371Z,28.48
2022-08-24T09:52:41.354Z,28.20
2022-08-24T09:55:26.714Z,28.35
2022-08-24T09:58:12.014Z,28.37
2022-08-24T10:00:55.289Z,28.77
2022-08-24T10:04:00.963Z,28.80
2022-08-24T10:06:46.395Z,28.79
2022-08-24T10:09:31.018Z,28.64
2022-08-24T10:12:24.842Z,28.78
2022-08-24T10:15:04.813Z,29.08
2022-08-24T10:17:38.179Z,28.95
2022-08-24T10:20:21.051Z,28.84
2022-08-24T10:23:37.885Z,29.11
2022-08-24T10:26:20.986Z,29.33
2022-08-24T10:29:12.213Z,29.19
2022-08-24T10:31:38.768Z,29.15
2022-08-24T10:34:40.563Z,29.11
2022-08-24T10:37:28.423Z,29.43
2022-08-24T10:40:34.482Z,29.57
2022-08-24T10:43:34.820Z,29.46
2022-08-24T10:46:30.486Z,29.65
2022-08-24T10:49:18.106Z,29.63
2022-08-24T10:52:18.682Z,30.09
2022-08-24T10:54:45.657Z,30.00
2022-08-24T10:57:31.646Z,29.89
2022-08-24T11:00:01.187Z,30.05
2022-08-24T11:02:31.685Z,30.03
2022-08-24T11:05:01.149Z,30.21
2022-08-24T11:07:28.067Z,30.32
2022-08-24T11:09:58.611Z,30.20
2022-08-24T11:12:30.407Z,30.18
2022-08-24T11:15:04.042Z,30.46
2022-08-24T11:17:33.175Z,30.40
2022-08-24T11:19:59.859Z,30.32
2022-08-24T11:22:41.859Z,30.34
2022-08-24T11:25:25.885Z,30.37
2022-08-24T11:28:02.833Z,30.50
2022-08-24T11:30:30.228Z,30.61
2022-08-24T11:33:23.697Z,30.65
2022-08-24T11:35:50.256Z,30.62
2022-08-24T11:38:26.091Z,30.69
2022-08-24T11:41:03.441Z,30.63
2022-08-24T11:44:01.967Z,30.76
2022-08-24T11:46:37.454Z,30.59
2022-08-24T11:49:18.455Z,30.61
2022-08-24T11:51:58.011Z,30.80
2022-08-24T11:54:43.511Z,30.90
2022-08-24T11:57:21.371Z,30.86
2022-08-24T12:00:15.974Z,30.96
2022-08-24T12:03:04.375Z,31.08
2022-08-24T12:05:40.352Z,30.96
2022-08-24T12:08:14.164Z,30.82
2022-08-24T12:11:09.844Z,31.03
2022-08-24T12:14:00.919Z,31.29
2022-08-24T12:16:34.204Z,31.38
2022-08-24T12:19:06.868Z,31.30
2022-08-24T12:21:37.930Z,31.21
2022-08-24T12:24:10.086Z,31.24
2022-08-24T12:26:38.608Z,31.59
2022-08-24T12:29:20.812Z,31.22
2022-08-24T12:31:56.214Z,31.08
2022-08-24T12:34:31.945Z,31.42
2022-08-24T12:37:15.394Z,31.68
2022-08-24T12:39:46.460Z,31.58
2022-08-24T12:42:22.380Z,31.73
2022-08-24T12:44:58.804Z,31.82
2022-08-24T12:47:33.764Z,31.74
2022-08-24T12:50:07.795Z,32.20
2022-08-24T12:52:40.125Z,31.70
2022-08-24T12:55:24.939Z,32.01
2022-08-24T12:58:34.932Z,31.97
2022-08-24T13:01:06.707Z,31.89
2022-08-24T13:03:37.296Z,32.15
2022-08-24T13:06:09.073Z,31.91
2022-08-24T13:08:42.913Z,31.78
2022-08-24T13:11:33.187Z,32.09
2022-08-24T13:14:05.711Z,32.23
2022-08-24T13:16:47.652Z,32.42
2022-08-24T13:19:23.153Z,32.02
2022-08-24T13:21:54.640Z,32.11
2022-08-24T13:24:30.474Z,32.40
2022-08-24T13:27:12.574Z,32.58
2022-08-24T13:30:07.766Z,32.17
2022-08-24T13:32:43.884Z,31.60
2022-08-24T13:35:30.549Z,31.85
2022-08-24T13:38:42.700Z,31.81
2022-08-24T13:41:18.346Z,32.43
2022-08-24T13:44:25.075Z,32.02
2022-08-24T13:47:22.744Z,31.96
2022-08-24T13:49:49.939Z,32.10
2022-08-24T13:52:32.758Z,32.39
2022-08-24T13:55:20.508Z,32.47
2022-08-24T13:58:03.761Z,32.30
2022-08-24T14:00:42.912Z,32.50
2022-08-24T14:03:24.391Z,32.49
2022-08-24T14:05:57.643Z,32.69
2022-08-24T14:08:40.154Z,32.60
2022-08-24T14:11:25.057Z,32.68
2022-08-24T14:14:16.727Z,32.90
2022-08-24T14:17:35.715Z,32.69
2022-08-24T14:20:11.487Z,32.78
2022-08-24T14:23:00.422Z,32.75
2022-08-24T14:25:33.658Z,33.05
2022-08-24T14:28:00.258Z,32.70
2022-08-24T14:30:26.833Z,32.87
2022-08-24T14:33:03.451Z,32.78
2022-08-24T14:35:42.137Z,33.19
2022-08-24T14:38:12.717Z,32.93
2022-08-24T14:41:06.622Z,32.53
2022-08-24T14:43:55.369Z,32.92
2022-08-24T14:46:34.096Z,32.86
2022-08-24T14:49:06.494Z,32.64
2022-08-24T14:51:33.020Z,32.58
2022-08-24T14:54:02.037Z,32.31
2022-08-24T14:56:31.775Z,32.48
2022-08-24T14:59:01.188Z,32.76
2022-08-24T15:02:18.566Z,32.83
2022-08-24T15:04:55.310Z,32.79
2022-08-24T15:07:27.006Z,32.80
2022-08-24T15:09:55.739Z,33.13
2022-08-24T15:12:34.234Z,33.14
2022-08-24T15:15:04.983Z,32.87
2022-08-24T15:17:50.455Z,32.77
2022-08-24T15:20:25.742Z,32.68
2022-08-24T15:23:02.474Z,32.86
2022-08-24T15:25:36.947Z,32.50
2022-08-24T15:28:25.140Z,32.58
2022-08-24T15:30:59.024Z,32.53
2022-08-24T15:33:27.582Z,32.57
2022-08-24T15:36:06.266Z,32.67
2022-08-24T15:38:35.367Z,32.54
2022-08-24T15:41:32.862Z,32.38
2022-08-24T15:44:04.424Z,32.39
2022-08-24T15:46:40.625Z,32.28
2022-08-24T15:49:18.826Z,32.27
2022-08-24T15:51:53.070Z,32.37
2022-08-24T15:54:24.761Z,32.45
2022-08-24T15:56:56.005Z,32.52
2022-08-24T15:59:39.272Z,32.43
2022-08-24T16:02:29.040Z,32.44
2022-08-24T16:05:19.083Z,32.50
2022-08-24T16:08:04.244Z,32.42
2022-08-24T16:10:39.869Z,32.35
2022-08-24T16:13:30.506Z,32.22
2022-08-24T16:15:59.757Z,32.21
2022-08-24T16:18:47.797Z,32.13
2022-08-24T16:21:45.112Z,32.03
2022-08-24T16:24:25.543Z,32.08
2022-08-24T16:26:59.077Z,32.11
2022-08-24T16:29:34.811Z,32.02
2022-08-24T16:32:21.126Z,32.02
2022-08-24T16:35:18.177Z,31.98
2022-08-24T16:37:44.820Z,31.95
2022-08-24T16:40:11.713Z,31.95
2022-08-24T16:42:40.488Z,31.84
2022-08-24T16:45:10.070Z,31.84
2022-08-24T16:47:36.722Z,31.83
2022-08-24T16:50:04.846Z,31.81
2022-08-24T16:52:31.419Z,31.70
2022-08-24T16:54:58.101Z,31.78
2022-08-24T16:57:31.222Z,31.87
2022-08-24T16:59:58.443Z,31.86
2022-08-24T17:02:28.470Z,31.85
2022-08-24T17:04:55.088Z,31.83
2022-08-24T17:07:24.462Z,31.85
2022-08-24T17:09:52.001Z,31.86
2022-08-24T17:12:19.100Z,31.85
2022-08-24T17:14:45.746Z,31.82
2022-08-24T17:17:15.533Z,31.80
2022-08-24T17:19:43.910Z,31.76
2022-08-24T17:22:16.057Z,31.72
2022-08-24T17:24:43.503Z,31.59
2022-08-24T17:27:10.763Z,31.60
2022-08-24T17:29:37.375Z,31.57
2022-08-24T17:32:05.115Z,31.55
2022-08-24T17:34:32.159Z,31.52
2022-08-24T17:36:59.222Z,31.49
2022-08-24T17:39:25.956Z,31.49
2022-08-24T17:41:54.181Z,31.38
2022-08-24T17:44:28.059Z,31.39
2022-08-24T17:46:59.240Z,31.39
2022-08-24T17:49:28.257Z,31.38
2022-08-24T17:51:55.230Z,31.33
2022-08-24T17:54:22.821Z,31.18
2022-08-24T17:56:50.930Z,31.18
2022-08-24T17:59:25.895Z,31.13
2022-08-24T18:01:58.210Z,31.09
2022-08-24T18:04:28.003Z,30.97
2022-08-24T18:06:56.098Z,30.88
2022-08-24T18:09:29.396Z,30.95
2022-08-24T18:11:58.930Z,30.87
2022-08-24T18:14:27.141Z,30.90
2022-08-24T18:16:57.217Z,30.87
2022-08-24T18:19:25.446Z,30.80
2022-08-24T18:21:52.250Z,30.79
2022-08-24T18:24:19.810Z,30.71
2022-08-24T18:26:49.274Z,30.56
2022-08-24T18:29:20.785Z,30.62
2022-08-24T18:31:48.430Z,30.57
2022-08-24T18:34:21.143Z,30.62
2022-08-24T18:36:48.345Z,30.59
2022-08-24T18:39:15.614Z,30.59
2022-08-24T18:41:44.447Z,30.44
2022-08-24T18:44:20.033Z,30.48
2022-08-24T18:46:48.895Z,30.46
2022-08-24T18:49:17.337Z,30.32
2022-08-24T18:51:45.045Z,30.25
2022-08-24T18:54:16.322Z,30.30
2022-08-24T18:56:44.787Z,30.15
2022-08-24T18:59:14.587Z,30.22
2022-08-24T19:02:01.806Z,30.05
2022-08-24T19:04:33.173Z,30.08
2022-08-24T19:07:00.610Z,30.06
2022-08-24T19:09:30.748Z,30.00
2022-08-24T19:12:00.321Z,30.05
2022-08-24T19:14:26.930Z,29.85
2022-08-24T19:16:53.532Z,29.76
2022-08-24T19:19:22.180Z,29.80
2022-08-24T19:21:49.555Z,29.82
2022-08-24T19:24:19.306Z,29.79
2022-08-24T19:26:45.877Z,29.76
2022-08-24T19:29:12.512Z,29.68
2022-08-24T19:31:39.227Z,29.55
2022-08-24T19:34:06.195Z,29.64
2022-08-24T19:36:32.947Z,29.54
2022-08-24T19:38:59.641Z,29.61
2022-08-24T19:41:36.857Z,29.49
2022-08-24T19:44:27.761Z,29.45
2022-08-24T19:46:55.538Z,29.50
2022-08-24T19:49:22.796Z,29.51
2022-08-24T19:51:50.870Z,29.39
2022-08-24T19:54:17.638Z,29.38
2022-08-24T19:56:45.359Z,29.39
2022-08-24T19:59:26.918Z,29.28
2022-08-24T20:01:53.708Z,29.18
2022-08-24T20:04:20.342Z,29.36
2022-08-24T20:06:47.620Z,29.31
2022-08-24T20:09:14.529Z,29.26
2022-08-24T20:11:41.456Z,29.16
2022-08-24T20:14:08.374Z,29.18
2022-08-24T20:16:39.064Z,29.09
2022-08-24T20:19:06.025Z,29.15
2022-08-24T20:21:32.727Z,29.10
2022-08-24T20:24:00.479Z,29.03
2022-08-24T20:26:29.567Z,28.94
2022-08-24T20:28:58.889Z,29.03
2022-08-24T20:31:28.379Z,28.85
2022-08-24T20:33:57.134Z,28.91
2022-08-24T20:36:28.008Z,28.93
2022-08-24T20:38:57.961Z,28.93
2022-08-24T20:41:25.954Z,28.79
2022-08-24T20:43:52.504Z,28.85
2022-08-24T20:46:19.819Z,28.57
2022-08-24T20:48:47.303Z,28.67
2022-08-24T20:51:23.016Z,28.63
2022-08-24T20:53:49.603Z,28.61
2022-08-24T20:56:31.259Z,28.59
2022-08-24T20:59:03.325Z,28.57
2022-08-24T21:01:30.985Z,28.59
2022-08-24T21:04:02.827Z,28.33
2022-08-24T21:06:32.825Z,28.34
2022-08-24T21:09:00.074Z,28.26
2022-08-24T21:11:26.845Z,28.09
2022-08-24T21:13:53.433Z,28.26
2022-08-24T21:16:20.023Z,28.28
2022-08-24T21:18:49.488Z,28.21
2022-08-24T21:21:16.292Z,28.02
2022-08-24T21:23:42.951Z,28.08
2022-08-24T21:26:14.018Z,27.99
2022-08-24T21:28:41.958Z,27.89
2022-08-24T21:31:09.089Z,27.87
2022-08-24T21:33:54.278Z,27.87
2022-08-24T21:36:24.012Z,27.74
2022-08-24T21:38:52.461Z,27.72
2022-08-24T21:41:21.111Z,27.58
2022-08-24T21:43:47.664Z,27.61
2022-08-24T21:46:14.557Z,27.79
2022-08-24T21:48:41.221Z,27.66
2022-08-24T21:51:07.935Z,27.64
2022-08-24T21:53:34.509Z,27.58
2022-08-24T21:56:01.743Z,27.50
2022-08-24T21:58:28.682Z,27.50
2022-08-24T22:00:58.852Z,27.70
2022-08-24T22:03:26.084Z,27.37
2022-08-24T22:05:58.458Z,27.41
2022-08-24T22:08:26.071Z,27.58
2022-08-24T22:10:55.364Z,27.59
2022-08-24T22:13:21.947Z,27.66
2022-08-24T22:15:49.534Z,27.09
2022-08-24T22:18:16.129Z,27.44
2022-08-24T22:20:42.724Z,27.52
2022-08-24T22:23:09.363Z,27.45
2022-08-24T22:25:36.388Z,27.38
2022-08-24T22:28:03.223Z,27.50
2022-08-24T22:30:32.529Z,27.22
2022-08-24T22:32:59.757Z,27.19
2022-08-24T22:35:26.328Z,27.05
2022-08-24T22:37:52.922Z,27.17
2022-08-24T22:40:19.848Z,27.11
2022-08-24T22:42:46.509Z,27.19
2022-08-24T22:45:13.215Z,27.20
2022-08-24T22:47:39.927Z,27.15
2022-08-24T22:50:07.975Z,27.06
2022-08-24T22:52:34.599Z,27.10
2022-08-24T22:55:01.215Z,27.07
2022-08-24T22:57:28.217Z,27.04
2022-08-24T22:59:57.464Z,26.98
2022-08-24T23:02:24.106Z,26.95
2022-08-24T23:04:52.424Z,26.93
2022-08-24T23:07:20.014Z,26.89
2022-08-24T23:09:47.114Z,26.87
2022-08-24T23:12:20.487Z,26.85
2022-08-24T23:14:48.177Z,26.80
2022-08-24T23:17:14.813Z,26.76
2022-08-24T23:20:00.192Z,26.74
2022-08-24T23:22:33.586Z,26.69
2022-08-24T23:25:01.407Z,26.65
2022-08-24T23:27:37.120Z,26.63
2022-08-24T23:30:07.802Z,26.60
2022-08-24T23:32:34.374Z,26.58
2022-08-24T23:35:01.034Z,26.53
2022-08-24T23:37:27.987Z,26.50
2022-08-24T23:39:54.582Z,26.46
2022-08-24T23:42:21.276Z,26.44
2022-08-24T23:44:47.907Z,26.40
2022-08-24T23:47:14.594Z,26.37
2022-08-24T23:49:41.741Z,26.33
2022-08-24T23:52:08.749Z,26.28
2022-08-24T23:54:52.695Z,26.24
2022-08-24T23:57:19.369Z,26.21
2022-08-24T23:59:45.942Z,26.17
